Time;durP1;ratioP1;P1;durP2;ratioP2;P2;SDS_P1;SDS_P2;PMS_P1;PMS_P2;Temp;Humidity;BMP_temperature;BMP_pressure;BME280_temperature;BME280_humidity;BME280_pressure;Samples;Min_cycle;Max_cycle;Signal;HPM_P1;HPM_P2
2022/05/03 00:04:00;;;;;;;51.70;27.20;;;;;;;8.70;55.59;98475.30;432524;1271;108800;-42
2022/05/03 00:14:05;;;;;;;61.60;35.30;;;;;;;8.67;55.72;98469.36;432615;1270;99286;-43
2022/05/03 00:24:13;;;;;;;72.70;40.90;;;;;;;8.70;55.76;98460.41;432614;1270;109408;-46
2022/05/03 00:34:22;;;;;;;75.10;43.30;;;;;;;8.55;56.02;98459.34;432385;1270;98860;-44
2022/05/03 00:54:53;;;;;;;81.40;46.30;;;;;;;8.17;56.82;98458.46;432513;1270;107404;-45
2022/05/03 01:05:09;;;;;;;63.60;38.60;;;;;;;7.90;56.92;98458.91;432601;1270;99247;-44
2022/05/03 01:15:16;;;;;;;51.80;29.50;;;;;;;7.74;57.49;98449.83;432598;1270;108865;-41
2022/05/03 01:25:35;;;;;;;58.50;31.40;;;;;;;7.87;57.58;98442.59;432426;1267;99282;-43
2022/05/03 01:35:45;;;;;;;74.60;38.40;;;;;;;7.93;58.04;98440.88;433375;1258;112374;-44
2022/05/03 01:45:57;;;;;;;64.70;39.30;;;;;;;7.83;58.24;98443.67;432435;1270;108738;-42
2022/05/03 01:56:32;;;;;;;92.10;53.50;;;;;;;7.55;58.20;98438.39;432603;1270;99282;-48
2022/05/03 02:16:58;;;;;;;76.90;39.60;;;;;;;7.31;59.14;98428.65;432437;1270;98340;-45
2022/05/03 02:27:04;;;;;;;62.40;36.50;;;;;;;7.38;59.36;98425.90;432617;1270;112516;-46
2022/05/03 02:37:13;;;;;;;46.50;27.90;;;;;;;7.37;59.39;98444.11;432592;1270;108814;-43
2022/05/03 02:47:24;;;;;;;50.20;29.80;;;;;;;6.96;59.72;98451.26;432577;1270;98040;-44
2022/05/03 02:57:32;;;;;;;47.90;28.00;;;;;;;6.69;59.98;98448.66;432516;1270;108855;-42
2022/05/03 03:07:42;;;;;;;45.50;29.00;;;;;;;6.56;60.39;98450.38;432562;1270;99147;-45
2022/05/03 03:17:50;;;;;;;29.00;20.20;;;;;;;6.53;60.64;98447.93;432446;1270;112237;-44
2022/05/03 03:27:59;;;;;;;30.10;16.80;;;;;;;6.63;61.09;98454.32;432430;1270;109239;-42
2022/05/03 03:38:06;;;;;;;30.50;20.60;;;;;;;6.75;61.08;98449.85;432427;1270;99270;-44
2022/05/03 03:48:14;;;;;;;45.20;26.20;;;;;;;7.06;61.48;98443.92;432613;1270;108708;-44
2022/05/03 03:58:20;;;;;;;41.90;25.50;;;;;;;7.23;61.40;98448.05;432519;1270;99260;-45
2022/05/03 04:08:28;;;;;;;43.50;25.80;;;;;;;7.37;61.67;98454.35;432629;1270;112669;-45
2022/05/03 04:28:55;;;;;;;33.30;24.20;;;;;;;7.91;61.86;98465.23;432546;1270;98651;-44
2022/05/03 04:39:04;;;;;;;30.30;21.90;;;;;;;8.36;61.92;98468.61;432572;1270;108823;-43
2022/05/03 04:49:11;;;;;;;35.60;25.40;;;;;;;9.06;61.98;98470.33;432489;1270;98013;-41
2022/05/03 04:59:18;;;;;;;41.90;27.30;;;;;;;9.40;61.39;98475.20;432622;1271;112380;-46
2022/05/03 05:09:24;;;;;;;40.60;25.60;;;;;;;9.54;61.24;98478.27;432499;1269;108791;-42
2022/05/03 05:19:31;;;;;;;44.30;25.50;;;;;;;9.74;61.22;98484.89;432380;1270;98847;-42
2022/05/03 05:29:38;;;;;;;41.60;25.90;;;;;;;9.92;60.60;98496.08;432571;1270;109136;-43
2022/05/03 05:39:45;;;;;;;42.80;27.30;;;;;;;10.06;60.26;98494.88;432511;1269;98023;-45
2022/05/03 05:49:53;;;;;;;36.50;25.40;;;;;;;10.31;59.80;98487.80;432559;1270;111784;-44
2022/05/03 06:00:01;;;;;;;39.90;25.30;;;;;;;10.66;59.62;98498.27;432408;1270;108757;-41
2022/05/03 06:10:09;;;;;;;38.70;26.40;;;;;;;10.80;59.42;98507.71;432717;1270;99374;-47
2022/05/03 06:20:17;;;;;;;45.00;29.00;;;;;;;11.28;59.41;98504.88;432340;1270;379319;-44
2022/05/03 06:30:24;;;;;;;39.10;23.60;;;;;;;12.43;59.40;98501.87;432714;1270;98831;-41
2022/05/03 06:40:30;;;;;;;27.50;17.40;;;;;;;14.43;58.12;98502.84;432525;1270;111258;-45
2022/05/03 06:50:37;;;;;;;23.70;16.30;;;;;;;14.91;55.61;98505.88;432485;1270;108343;-45
2022/05/03 07:00:45;;;;;;;23.70;14.60;;;;;;;15.43;53.29;98526.87;432438;1270;99268;-44
2022/05/03 07:10:52;;;;;;;20.70;14.40;;;;;;;15.70;51.52;98525.27;432550;1270;108680;-46
2022/05/03 07:41:31;;;;;;;13.10;9.20;;;;;;;16.74;49.91;98534.21;432383;1270;108847;-43
2022/05/03 07:51:40;;;;;;;14.30;8.40;;;;;;;17.86;48.04;98532.27;432503;1269;99357;-45
2022/05/03 08:01:47;;;;;;;13.60;6.80;;;;;;;18.31;46.16;98536.46;432559;1270;108771;-45
2022/05/03 08:11:55;;;;;;;9.50;7.00;;;;;;;17.97;44.55;98537.54;432328;1270;98037;-46
2022/05/03 08:22:02;;;;;;;10.90;5.70;;;;;;;18.15;44.70;98539.11;432501;1270;112451;-46
2022/05/03 08:32:09;;;;;;;9.00;6.00;;;;;;;18.68;43.68;98549.50;432632;1270;108777;-43
2022/05/03 08:42:17;;;;;;;11.60;7.40;;;;;;;18.88;42.06;98556.66;432477;1270;99381;-40
2022/05/03 08:52:28;;;;;;;17.00;6.40;;;;;;;18.81;41.79;98557.81;432428;1270;109113;-42
2022/05/03 09:02:35;;;;;;;6.30;5.60;;;;;;;19.62;41.16;98548.52;432554;1271;98017;-43
2022/05/03 09:43:22;;;;;;;8.50;7.20;;;;;;;19.73;38.93;98544.23;432604;1268;108835;-48
2022/05/03 09:53:32;;;;;;;6.00;4.90;;;;;;;20.04;38.94;98542.36;432510;1269;99381;-44
2022/05/03 10:03:41;;;;;;;8.30;5.80;;;;;;;20.24;38.29;98540.02;432580;1270;112464;-40
2022/05/03 10:13:48;;;;;;;10.80;4.80;;;;;;;20.33;37.93;98536.84;432389;1270;108748;-43
2022/05/03 10:34:46;;;;;;;6.10;4.60;;;;;;;19.97;37.89;98534.15;432571;1270;108658;-44
2022/05/03 10:45:03;;;;;;;6.60;5.60;;;;;;;20.10;38.17;98526.30;432481;1270;98080;-42
2022/05/03 10:55:08;;;;;;;7.70;6.90;;;;;;;19.96;37.54;98525.19;432652;1270;111238;-39
2022/05/03 11:15:21;;;;;;;6.70;5.90;;;;;;;20.21;37.33;98507.11;432651;1270;99391;-45
2022/05/03 11:25:28;;;;;;;7.60;5.30;;;;;;;20.51;37.13;98500.46;432545;1270;108722;-42
2022/05/03 11:35:42;;;;;;;9.90;5.50;;;;;;;20.65;36.73;98486.39;432559;1270;98857;-45
2022/05/03 11:45:50;;;;;;;6.80;5.20;;;;;;;20.38;36.53;98482.13;432580;1270;112430;-44
2022/05/03 11:56:00;;;;;;;5.60;4.60;;;;;;;20.37;36.54;98470.71;432603;1269;108826;-43
2022/05/03 12:06:07;;;;;;;6.70;5.50;;;;;;;20.30;36.31;98474.69;432622;1270;99248;-43
2022/05/03 12:26:25;;;;;;;4.90;4.50;;;;;;;20.13;36.05;98457.07;432393;1270;98043;-45
2022/05/03 12:36:30;;;;;;;8.20;5.00;;;;;;;19.96;36.12;98454.09;432404;1269;112417;-45
2022/05/03 12:46:39;;;;;;;7.50;4.70;;;;;;;19.93;35.58;98446.85;432587;1270;108795;-41
2022/05/03 13:07:11;;;;;;;9.70;5.00;;;;;;;19.90;35.50;98429.67;432372;1270;107842;-45
2022/05/03 13:17:18;;;;;;;7.50;5.50;;;;;;;19.72;35.17;98428.25;432607;1271;99242;-41
2022/05/03 13:27:26;;;;;;;5.50;4.00;;;;;;;19.54;35.41;98423.80;432705;1270;112561;-43
2022/05/03 13:47:59;;;;;;;6.50;4.80;;;;;;;19.49;36.02;98417.77;432545;1270;99257;-44
2022/05/03 13:58:05;;;;;;;5.20;4.70;;;;;;;19.54;36.14;98412.91;432522;1270;108867;-45
2022/05/03 14:08:13;;;;;;;6.60;4.80;;;;;;;19.44;36.61;98403.30;432523;1270;99268;-40
2022/05/03 14:28:26;;;;;;;7.40;5.20;;;;;;;19.30;36.65;98402.24;432582;1270;107023;-47
2022/05/03 14:38:33;;;;;;;10.00;4.70;;;;;;;19.32;36.18;98408.31;432650;1270;99263;-42
2022/05/03 14:48:40;;;;;;;6.90;4.50;;;;;;;19.17;36.11;98405.23;432644;1270;108123;-42
2022/05/03 15:09:13;;;;;;;9.10;4.70;;;;;;;19.04;36.15;98411.27;432691;1270;112412;-41
2022/05/03 15:19:20;;;;;;;5.20;4.70;;;;;;;18.95;36.67;98408.18;432653;1270;108897;-43
2022/05/03 15:29:27;;;;;;;7.70;4.50;;;;;;;18.96;36.64;98403.02;432629;1270;98312;-45
2022/05/03 15:39:35;;;;;;;10.70;4.50;;;;;;;19.06;36.41;98398.59;432670;1270;108609;-42
2022/05/03 15:49:42;;;;;;;8.00;5.70;;;;;;;19.02;36.53;98393.16;432585;1270;99401;-42
2022/05/03 15:59:49;;;;;;;7.20;5.00;;;;;;;18.91;36.60;98393.70;432449;1270;112256;-46
2022/05/03 16:09:57;;;;;;;6.50;5.60;;;;;;;18.66;36.32;98390.60;432633;1270;108763;-45
2022/05/03 16:20:06;;;;;;;7.20;5.20;;;;;;;18.42;36.46;98390.67;432539;1270;99247;-45
2022/05/03 16:30:12;;;;;;;9.20;5.40;;;;;;;18.19;37.14;98389.76;432586;1270;109394;-45
2022/05/03 17:00:53;;;;;;;7.90;5.90;;;;;;;17.54;38.37;98402.77;432496;1271;109357;-42
2022/05/03 17:11:01;;;;;;;10.00;7.00;;;;;;;17.35;38.92;98406.55;432596;1271;98066;-44
2022/05/03 17:21:09;;;;;;;20.70;11.70;;;;;;;17.07;39.34;98411.17;432647;1270;109046;-47
2022/05/03 17:41:24;;;;;;;13.80;6.90;;;;;;;16.49;40.34;98427.94;432700;1270;112615;-46
2022/05/03 18:01:53;;;;;;;10.60;7.20;;;;;;;15.73;41.94;98448.84;432496;1270;98088;-44
2022/05/03 18:12:09;;;;;;;8.50;6.60;;;;;;;15.14;42.61;98458.77;432587;1270;108813;-44
2022/05/03 18:22:17;;;;;;;11.00;7.20;;;;;;;14.71;43.36;98470.83;432004;1271;817160;-41
2022/05/03 18:32:25;;;;;;;12.40;10.10;;;;;;;14.15;44.07;98479.05;432378;1273;112968;-44
2022/05/03 18:42:34;;;;;;;9.30;8.40;;;;;;;13.81;44.88;98488.38;432552;1271;108677;-42
2022/05/03 18:52:41;;;;;;;13.80;9.70;;;;;;;13.50;45.63;98489.08;432623;1270;99265;-45
2022/05/03 19:02:49;;;;;;;13.90;10.40;;;;;;;13.17;46.39;98497.14;432513;1271;108887;-45
2022/05/03 19:12:57;;;;;;;19.90;14.60;;;;;;;12.82;47.44;98503.39;432466;1270;97956;-43
2022/05/03 19:23:04;;;;;;;19.40;12.70;;;;;;;12.44;48.19;98516.64;432638;1271;111006;-46
2022/05/03 19:33:15;;;;;;;24.70;15.50;;;;;;;12.08;49.00;98522.73;432365;1270;109256;-44
2022/05/03 19:43:23;;;;;;;30.30;18.30;;;;;;;11.62;49.45;98526.73;432577;1273;98089;-42
2022/05/03 19:53:31;;;;;;;44.60;25.80;;;;;;;11.36;50.69;98534.04;432541;1270;108818;-46
2022/05/03 20:03:38;;;;;;;39.10;22.40;;;;;;;11.17;51.31;98540.67;432608;1270;99271;-42
2022/05/03 20:13:46;;;;;;;36.00;19.40;;;;;;;10.99;52.01;98544.33;432570;1270;112468;-43
2022/05/03 20:23:53;;;;;;;25.70;16.30;;;;;;;10.88;52.43;98549.35;432527;1270;109169;-45
2022/05/03 20:34:06;;;;;;;36.50;20.90;;;;;;;10.88;53.22;98557.61;432706;1270;99260;-45
2022/05/03 20:44:14;;;;;;;59.00;30.40;;;;;;;10.94;53.88;98574.03;432539;1270;108967;-46
2022/05/03 20:54:21;;;;;;;41.40;22.00;;;;;;;10.85;53.94;98578.05;432475;1273;98043;-41
2022/05/03 21:04:29;;;;;;;45.30;23.60;;;;;;;10.68;54.45;98582.48;432691;1270;112766;-41
2022/05/03 21:14:36;;;;;;;41.10;24.70;;;;;;;10.71;55.06;98583.08;432418;1270;108830;-41
2022/05/03 21:24:43;;;;;;;37.80;22.50;;;;;;;10.70;55.04;98590.23;432419;1270;99356;-44
2022/05/03 21:34:51;;;;;;;43.00;23.10;;;;;;;10.67;55.44;98597.73;432516;1270;109420;-45
2022/05/03 21:44:58;;;;;;;51.70;28.50;;;;;;;10.56;55.62;98611.17;432559;1270;99145;-42
2022/05/03 21:55:06;;;;;;;54.00;31.40;;;;;;;10.26;55.97;98611.66;432533;1270;112471;-41
2022/05/03 22:05:13;;;;;;;51.20;30.90;;;;;;;9.86;56.27;98612.20;432581;1270;108731;-42
2022/05/03 22:15:20;;;;;;;58.10;34.70;;;;;;;9.53;56.82;98606.30;432427;1270;98841;-45
2022/05/03 22:25:27;;;;;;;48.20;26.80;;;;;;;9.39;57.63;98611.67;432406;1270;108810;-44
2022/05/03 22:35:35;;;;;;;54.00;27.10;;;;;;;9.23;57.86;98619.20;432537;1270;99315;-44
2022/05/03 22:45:42;;;;;;;44.40;25.50;;;;;;;9.06;58.25;98624.41;432608;1270;112379;-44
2022/05/03 22:55:49;;;;;;;63.10;34.30;;;;;;;8.98;59.12;98629.63;432358;1270;109148;-44
2022/05/03 23:05:56;;;;;;;70.10;37.70;;;;;;;8.82;59.47;98630.02;432504;1270;99256;-42
2022/05/03 23:16:04;;;;;;;117.70;52.40;;;;;;;8.64;59.77;98625.70;432703;1270;107816;-41
2022/05/03 23:26:11;;;;;;;75.30;40.10;;;;;;;8.58;60.12;98621.05;432454;1270;99318;-44
2022/05/03 23:36:18;;;;;;;42.60;23.30;;;;;;;8.76;60.62;98627.56;432661;1270;111681;-43
2022/05/03 23:46:25;;;;;;;42.50;21.80;;;;;;;8.95;61.01;98634.11;432583;1270;108860;-45
2022/05/03 23:56:32;;;;;;;49.70;30.20;;;;;;;9.18;61.37;98640.90;432464;1270;99139;-44
